createdAt,value
2022-09-28T00:01:45.134Z,0.53
2022-09-28T00:04:47.231Z,0.50
2022-09-28T00:07:50.894Z,0.40
2022-09-28T00:10:57.233Z,0.60
2022-09-28T00:14:03.763Z,0.40
2022-09-28T00:17:05.722Z,0.43
2022-09-28T00:20:08.097Z,0.50
2022-09-28T00:23:09.996Z,0.40
2022-09-28T00:26:11.848Z,0.40
2022-09-28T00:29:27.211Z,0.40
2022-09-28T00:32:30.161Z,0.40
2022-09-28T00:35:32.058Z,0.40
2022-09-28T00:38:34.345Z,0.40
2022-09-28T00:41:36.299Z,0.40
2022-09-28T00:44:48.636Z,0.40
2022-09-28T00:47:53.842Z,0.40
2022-09-28T00:50:55.927Z,0.50
2022-09-28T00:53:59.597Z,0.30
2022-09-28T00:57:02.745Z,0.50
2022-09-28T01:00:05.297Z,0.50
2022-09-28T01:03:09.271Z,0.40
2022-09-28T01:06:13.586Z,0.83
2022-09-28T01:09:15.897Z,0.50
2022-09-28T01:12:18.195Z,0.53
2022-09-28T01:15:22.386Z,0.40
2022-09-28T01:18:31.728Z,0.30
2022-09-28T01:22:00.311Z,0.40
2022-09-28T01:25:35.841Z,0.30
2022-09-28T01:28:37.891Z,0.47
2022-09-28T01:31:42.244Z,0.47
2022-09-28T01:35:02.387Z,0.60
2022-09-28T01:38:19.013Z,0.60
2022-09-28T01:41:22.672Z,1.00
2022-09-28T01:44:25.972Z,0.90
2022-09-28T01:47:30.082Z,0.70
2022-09-28T01:50:37.606Z,0.90
2022-09-28T01:53:42.222Z,0.70
2022-09-28T01:56:48.896Z,1.00
2022-09-28T02:00:04.763Z,0.97
2022-09-28T02:03:12.847Z,1.17
2022-09-28T02:06:19.768Z,0.60
2022-09-28T02:09:28.517Z,0.90
2022-09-28T02:12:44.308Z,1.10
2022-09-28T02:15:53.886Z,1.10
2022-09-28T02:18:56.363Z,0.80
2022-09-28T02:22:16.307Z,0.90
2022-09-28T02:25:54.512Z,0.70
2022-09-28T02:28:56.514Z,0.60
2022-09-28T02:31:58.790Z,0.50
2022-09-28T02:35:01.123Z,0.40
2022-09-28T02:38:03.274Z,0.80
2022-09-28T02:41:24.544Z,0.60
2022-09-28T02:44:40.351Z,0.60
2022-09-28T02:48:05.849Z,0.50
2022-09-28T02:51:18.215Z,0.50
2022-09-28T02:54:23.789Z,0.70
2022-09-28T02:57:57.135Z,0.83
2022-09-28T03:01:24.013Z,0.80
2022-09-28T03:04:31.840Z,0.60
2022-09-28T03:07:54.927Z,0.50
2022-09-28T03:11:01.419Z,0.57
2022-09-28T03:14:04.089Z,0.60
2022-09-28T03:17:06.000Z,0.83
2022-09-28T03:20:10.569Z,0.87
2022-09-28T03:23:24.450Z,0.40
2022-09-28T03:26:27.119Z,0.53
2022-09-28T03:29:31.596Z,0.43
2022-09-28T03:32:33.894Z,0.50
2022-09-28T03:35:35.822Z,0.53
2022-09-28T03:38:37.825Z,0.60
2022-09-28T03:41:40.048Z,0.50
2022-09-28T03:44:42.130Z,0.57
2022-09-28T03:47:49.134Z,0.30
2022-09-28T03:51:00.153Z,0.50
2022-09-28T03:54:02.789Z,0.50
2022-09-28T03:57:04.734Z,0.50
2022-09-28T04:00:07.266Z,0.50
2022-09-28T04:03:09.596Z,0.50
2022-09-28T04:06:11.878Z,0.80
2022-09-28T04:09:14.414Z,0.60
2022-09-28T04:12:16.439Z,0.53
2022-09-28T04:15:18.371Z,0.57
2022-09-28T04:18:21.776Z,0.60
2022-09-28T04:21:23.681Z,0.60
2022-09-28T04:24:25.889Z,0.80
2022-09-28T04:27:46.278Z,0.60
2022-09-28T04:30:48.904Z,0.50
2022-09-28T04:33:50.865Z,0.50
2022-09-28T04:36:52.885Z,0.50
2022-09-28T04:39:54.783Z,0.80
2022-09-28T04:42:57.615Z,0.60
2022-09-28T04:46:01.093Z,0.80
2022-09-28T04:49:04.054Z,0.60
2022-09-28T04:52:06.882Z,0.70
2022-09-28T04:55:13.769Z,0.70
2022-09-28T04:58:15.629Z,0.60
2022-09-28T05:01:20.184Z,1.00
2022-09-28T05:04:25.749Z,0.50
2022-09-28T05:07:28.695Z,0.50
2022-09-28T05:10:30.523Z,0.87
2022-09-28T05:13:35.950Z,0.77
2022-09-28T05:16:38.111Z,0.50
2022-09-28T05:19:40.079Z,0.50
2022-09-28T05:22:41.939Z,0.57
2022-09-28T05:25:45.778Z,0.57
2022-09-28T05:28:47.672Z,0.40
2022-09-28T05:31:50.219Z,0.53
2022-09-28T05:34:52.115Z,0.30
2022-09-28T05:37:55.308Z,0.60
2022-09-28T05:40:57.606Z,1.40
2022-09-28T05:43:59.814Z,2.83
2022-09-28T05:47:01.765Z,3.13
2022-09-28T05:50:04.270Z,1.10
2022-09-28T05:53:08.979Z,0.60
2022-09-28T05:56:11.893Z,0.50
2022-09-28T05:59:13.762Z,0.50
2022-09-28T06:02:15.807Z,0.50
2022-09-28T06:05:17.980Z,0.70
2022-09-28T06:08:20.562Z,0.60
2022-09-28T06:11:22.885Z,0.50
2022-09-28T06:14:25.353Z,0.43
2022-09-28T06:17:27.375Z,0.50
2022-09-28T06:20:31.606Z,0.53
2022-09-28T06:23:33.515Z,0.60
2022-09-28T06:26:35.540Z,0.50
2022-09-28T06:29:37.570Z,0.60
2022-09-28T06:32:39.496Z,0.50
2022-09-28T06:35:41.460Z,0.50
2022-09-28T06:38:43.725Z,0.50
2022-09-28T06:41:45.659Z,0.40
2022-09-28T06:44:48.077Z,0.50
2022-09-28T06:47:54.560Z,0.30
2022-09-28T06:50:56.526Z,0.30
2022-09-28T06:53:58.462Z,0.37
2022-09-28T06:57:00.435Z,0.40
2022-09-28T07:00:02.633Z,0.50
2022-09-28T07:03:11.036Z,0.60
2022-09-28T07:06:13.519Z,0.80
2022-09-28T07:09:30.224Z,0.47
2022-09-28T07:12:36.223Z,0.90
2022-09-28T07:15:39.640Z,0.60
2022-09-28T07:18:42.416Z,0.70
2022-09-28T07:21:47.509Z,0.77
2022-09-28T07:24:52.424Z,0.70
2022-09-28T07:28:00.285Z,0.80
2022-09-28T07:31:03.576Z,0.50
2022-09-28T07:34:05.709Z,0.60
2022-09-28T07:37:09.094Z,0.40
2022-09-28T07:40:37.366Z,0.70
2022-09-28T07:43:40.508Z,0.53
2022-09-28T07:46:43.606Z,0.50
2022-09-28T07:49:45.571Z,0.60
2022-09-28T07:52:47.536Z,0.70
2022-09-28T07:56:02.609Z,0.50
2022-09-28T07:59:04.774Z,0.57
2022-09-28T08:02:06.829Z,0.70
2022-09-28T08:05:10.481Z,0.60
2022-09-28T08:08:12.452Z,0.60
2022-09-28T08:11:17.266Z,0.60
2022-09-28T08:14:19.864Z,0.50
2022-09-28T08:17:21.820Z,0.60
2022-09-28T08:20:42.475Z,0.30
2022-09-28T08:23:44.475Z,0.60
2022-09-28T08:26:46.317Z,0.57
2022-09-28T08:29:48.317Z,0.50
2022-09-28T08:32:50.113Z,0.50
2022-09-28T08:35:59.535Z,0.50
2022-09-28T08:39:01.862Z,0.40
2022-09-28T08:42:32.125Z,0.70
2022-09-28T08:45:36.050Z,0.60
2022-09-28T08:48:51.843Z,0.70
2022-09-28T08:52:20.799Z,0.67
2022-09-28T08:55:33.362Z,0.70
2022-09-28T08:58:39.930Z,0.60
2022-09-28T09:01:49.761Z,0.57
2022-09-28T09:04:53.019Z,0.60
2022-09-28T09:08:25.686Z,0.60
2022-09-28T09:11:44.157Z,0.50
2022-09-28T09:14:55.290Z,0.60
2022-09-28T09:18:23.609Z,0.60
2022-09-28T09:21:45.200Z,0.50
2022-09-28T09:24:52.554Z,0.70
2022-09-28T09:28:08.221Z,0.67
2022-09-28T09:31:23.056Z,0.60
2022-09-28T09:34:43.032Z,0.60
2022-09-28T09:38:00.465Z,1.03
2022-09-28T09:44:45.165Z,1.40
2022-09-28T09:47:55.464Z,0.83
2022-09-28T09:50:58.605Z,0.80
2022-09-28T09:54:04.513Z,0.80
2022-09-28T09:57:11.899Z,0.70
2022-09-28T10:00:15.805Z,0.90
2022-09-28T10:03:25.590Z,1.27
2022-09-28T10:06:34.778Z,0.73
2022-09-28T10:09:42.162Z,0.77
2022-09-28T10:12:44.181Z,0.73
2022-09-28T10:15:50.762Z,0.80
2022-09-28T10:18:53.679Z,0.97
2022-09-28T10:21:58.670Z,0.70
2022-09-28T10:25:01.463Z,0.73
2022-09-28T10:28:06.489Z,0.70
2022-09-28T10:31:39.766Z,1.83
2022-09-28T10:34:41.920Z,1.07
2022-09-28T10:37:54.645Z,0.90
2022-09-28T10:41:01.562Z,0.80
2022-09-28T10:44:07.405Z,1.30
2022-09-28T10:47:10.299Z,0.80
2022-09-28T10:50:24.530Z,1.10
2022-09-28T10:53:26.612Z,1.53
2022-09-28T10:56:30.795Z,0.77
2022-09-28T10:59:41.098Z,0.93
2022-09-28T11:02:43.177Z,0.70
2022-09-28T11:06:03.980Z,0.87
2022-09-28T11:09:20.287Z,0.97
2022-09-28T11:12:25.194Z,0.90
2022-09-28T11:15:42.749Z,1.13
2022-09-28T11:18:44.840Z,1.10
2022-09-28T11:21:46.781Z,1.40
2022-09-28T11:24:49.473Z,1.00
2022-09-28T11:27:51.373Z,2.00
2022-09-28T11:30:54.342Z,0.60
2022-09-28T11:34:14.634Z,0.57
2022-09-28T11:37:49.870Z,0.60
2022-09-28T11:41:12.394Z,0.60
2022-09-28T11:44:44.985Z,1.10
2022-09-28T11:48:00.674Z,0.70
2022-09-28T11:51:11.850Z,1.00
2022-09-28T11:54:48.729Z,0.90
2022-09-28T11:58:06.729Z,0.80
2022-09-28T12:01:18.773Z,1.30
2022-09-28T12:04:24.469Z,1.30
2022-09-28T12:07:37.734Z,1.03
2022-09-28T12:11:00.894Z,1.00
2022-09-28T12:14:06.315Z,1.00
2022-09-28T12:17:20.140Z,0.97
2022-09-28T12:20:35.059Z,0.70
2022-09-28T12:23:38.947Z,1.00
2022-09-28T12:26:57.614Z,0.90
2022-09-28T12:30:04.964Z,0.73
2022-09-28T12:33:15.739Z,1.00
2022-09-28T12:36:21.147Z,1.70
2022-09-28T12:39:47.246Z,1.10
2022-09-28T12:43:23.072Z,1.00
2022-09-28T12:46:28.795Z,0.83
2022-09-28T12:53:20.857Z,0.80
2022-09-28T12:56:34.755Z,0.87
2022-09-28T12:59:44.290Z,0.70
2022-09-28T13:03:08.213Z,1.70
2022-09-28T13:06:52.970Z,1.50
2022-09-28T13:10:04.119Z,0.60
2022-09-28T13:13:37.553Z,0.50
2022-09-28T13:16:58.387Z,0.90
2022-09-28T13:20:18.118Z,0.70
2022-09-28T13:23:33.751Z,0.53
2022-09-28T13:26:44.316Z,0.80
2022-09-28T13:29:49.389Z,0.87
2022-09-28T13:32:51.844Z,1.17
2022-09-28T13:35:54.080Z,0.90
2022-09-28T13:38:57.692Z,1.20
2022-09-28T13:42:00.655Z,0.80
2022-09-28T13:45:20.442Z,1.20
2022-09-28T13:48:28.757Z,0.60
2022-09-28T13:51:38.281Z,0.60
2022-09-28T13:55:15.198Z,0.50
2022-09-28T13:58:33.820Z,0.70
2022-09-28T14:01:50.742Z,0.67
2022-09-28T14:04:57.199Z,0.60
2022-09-28T14:08:37.851Z,0.70
2022-09-28T14:11:44.076Z,0.43
2022-09-28T14:14:51.624Z,0.50
2022-09-28T14:18:03.349Z,0.50
2022-09-28T14:21:31.520Z,0.80
2022-09-28T14:24:51.626Z,0.80
2022-09-28T14:28:19.619Z,0.87
2022-09-28T14:31:26.505Z,0.60
2022-09-28T14:34:44.350Z,0.80
2022-09-28T14:38:07.468Z,0.70
2022-09-28T14:41:30.240Z,0.90
2022-09-28T14:45:05.285Z,0.73
2022-09-28T14:48:15.410Z,0.70
2022-09-28T14:51:44.164Z,1.13
2022-09-28T14:54:50.980Z,1.10
2022-09-28T14:57:56.792Z,1.33
2022-09-28T15:01:02.915Z,0.80
2022-09-28T15:04:07.084Z,1.30
2022-09-28T15:07:30.636Z,1.20
2022-09-28T15:10:36.241Z,0.80
2022-09-28T15:13:40.969Z,1.70
2022-09-28T15:16:42.823Z,0.90
2022-09-28T15:20:00.382Z,0.70
2022-09-28T15:23:02.231Z,0.80
2022-09-28T15:26:07.390Z,0.97
2022-09-28T15:29:18.176Z,1.10
2022-09-28T15:32:24.907Z,0.90
2022-09-28T15:35:27.657Z,1.03
2022-09-28T15:38:31.725Z,1.23
2022-09-28T15:41:34.310Z,1.10
2022-09-28T15:44:37.589Z,1.87
2022-09-28T15:47:40.314Z,2.70
2022-09-28T15:51:11.223Z,1.80
2022-09-28T15:54:19.845Z,1.77
2022-09-28T15:57:37.572Z,2.20
2022-09-28T16:00:41.782Z,1.77
2022-09-28T16:03:50.985Z,1.47
2022-09-28T16:07:24.128Z,1.93
2022-09-28T16:10:33.930Z,1.60
2022-09-28T16:13:37.183Z,1.70
2022-09-28T16:16:46.659Z,1.60
2022-09-28T16:19:49.334Z,1.43
2022-09-28T16:22:51.365Z,2.07
2022-09-28T16:26:03.279Z,1.53
2022-09-28T16:29:09.975Z,1.93
2022-09-28T16:32:41.795Z,1.90
2022-09-28T16:35:43.930Z,1.90
2022-09-28T16:38:46.704Z,2.73
2022-09-28T16:41:52.481Z,2.53
2022-09-28T16:44:56.635Z,7.20
2022-09-28T16:47:59.184Z,2.33
2022-09-28T16:51:01.044Z,1.90
2022-09-28T16:54:33.779Z,2.60
2022-09-28T16:57:35.740Z,2.47
2022-09-28T17:00:37.914Z,2.13
2022-09-28T17:03:42.548Z,1.90
2022-09-28T17:06:44.579Z,2.20
2022-09-28T17:09:46.755Z,1.90
2022-09-28T17:12:48.722Z,2.00
2022-09-28T17:15:50.675Z,2.40
2022-09-28T17:18:52.649Z,2.03
2022-09-28T17:21:54.579Z,2.73
2022-09-28T17:24:56.552Z,2.30
2022-09-28T17:27:58.719Z,4.40
2022-09-28T17:31:01.966Z,4.73
2022-09-28T17:34:03.971Z,3.47
2022-09-28T17:37:05.989Z,3.20
2022-09-28T17:40:21.147Z,3.30
2022-09-28T17:43:23.412Z,3.27
2022-09-28T17:46:33.451Z,3.23
2022-09-28T17:49:35.401Z,2.87
2022-09-28T17:52:37.240Z,4.00
2022-09-28T17:55:39.684Z,3.40
2022-09-28T17:58:41.788Z,3.57
2022-09-28T18:01:43.773Z,4.07
2022-09-28T18:04:52.130Z,4.47
2022-09-28T18:07:54.940Z,4.97
2022-09-28T18:10:57.085Z,4.30
2022-09-28T18:13:58.984Z,3.67
2022-09-28T18:17:00.864Z,3.50
2022-09-28T18:20:03.781Z,4.17
2022-09-28T18:23:05.659Z,3.07
2022-09-28T18:26:15.443Z,3.67
2022-09-28T18:29:18.185Z,3.13
2022-09-28T18:32:20.825Z,3.20
2022-09-28T18:35:23.499Z,3.13
2022-09-28T18:38:26.769Z,3.87
2022-09-28T18:41:29.477Z,2.93
2022-09-28T18:44:31.420Z,3.43
2022-09-28T18:47:33.355Z,3.50
2022-09-28T18:50:35.900Z,3.50
2022-09-28T18:53:39.827Z,3.50
2022-09-28T18:56:41.895Z,3.60
2022-09-28T18:59:45.702Z,3.97
2022-09-28T19:02:48.997Z,3.73
2022-09-28T19:05:51.850Z,3.80
2022-09-28T19:08:56.461Z,4.23
2022-09-28T19:11:58.727Z,4.37
2022-09-28T19:15:05.612Z,4.20
2022-09-28T19:18:07.579Z,4.27
2022-09-28T19:21:12.728Z,3.90
2022-09-28T19:24:18.630Z,3.87
2022-09-28T19:27:20.709Z,4.43
2022-09-28T19:30:22.605Z,4.90
2022-09-28T19:33:26.481Z,4.83
2022-09-28T19:36:29.295Z,8.57
2022-09-28T19:39:31.510Z,7.90
2022-09-28T19:42:37.772Z,6.37
2022-09-28T19:45:40.034Z,6.13
2022-09-28T19:48:43.716Z,5.40
2022-09-28T19:55:12.599Z,5.10
2022-09-28T19:58:16.278Z,4.87
2022-09-28T20:01:19.015Z,5.10
2022-09-28T20:04:30.085Z,4.40
2022-09-28T20:07:35.931Z,6.83
2022-09-28T20:10:55.654Z,6.93
2022-09-28T20:14:03.262Z,7.83
2022-09-28T20:17:05.432Z,7.53
2022-09-28T20:20:10.325Z,8.33
2022-09-28T20:23:15.160Z,7.47
2022-09-28T20:26:17.775Z,7.30
2022-09-28T20:29:19.887Z,7.53
2022-09-28T20:32:21.861Z,7.43
2022-09-28T20:35:32.626Z,7.20
2022-09-28T20:38:37.508Z,8.37
2022-09-28T20:41:39.621Z,7.17
2022-09-28T20:44:41.450Z,7.43
2022-09-28T20:47:43.536Z,7.40
2022-09-28T20:50:45.381Z,7.27
2022-09-28T20:53:52.886Z,6.60
2022-09-28T20:56:55.921Z,6.27
2022-09-28T20:59:58.700Z,5.60
2022-09-28T21:03:01.215Z,4.90
2022-09-28T21:06:05.099Z,4.27
2022-09-28T21:09:12.619Z,4.00
2022-09-28T21:12:15.615Z,4.43
2022-09-28T21:15:17.615Z,2.87
2022-09-28T21:18:20.621Z,2.90
2022-09-28T21:21:26.640Z,3.17
2022-09-28T21:24:28.975Z,2.30
2022-09-28T21:27:31.352Z,2.00
2022-09-28T21:30:33.834Z,1.77
2022-09-28T21:33:35.820Z,1.20
2022-09-28T21:36:38.577Z,1.30
2022-09-28T21:39:40.442Z,1.13
2022-09-28T21:42:43.651Z,1.20
2022-09-28T21:45:49.851Z,0.93
2022-09-28T21:48:54.077Z,0.70
2022-09-28T21:52:16.949Z,0.83
2022-09-28T21:55:21.019Z,0.80
2022-09-28T21:58:27.900Z,0.90
2022-09-28T22:01:58.426Z,0.70
2022-09-28T22:09:06.174Z,0.60
2022-09-28T22:12:08.639Z,0.80
2022-09-28T22:15:11.180Z,0.70
2022-09-28T22:18:13.395Z,1.20
2022-09-28T22:21:17.977Z,0.70
2022-09-28T22:24:19.921Z,1.00
2022-09-28T22:27:22.270Z,0.63
2022-09-28T22:34:04.736Z,0.50
2022-09-28T22:37:07.389Z,0.60
2022-09-28T22:40:13.480Z,0.63
2022-09-28T22:43:16.116Z,0.73
2022-09-28T22:46:20.684Z,0.63
2022-09-28T22:49:24.595Z,0.80
2022-09-28T22:52:27.091Z,0.40
2022-09-28T22:55:29.494Z,0.80
2022-09-28T22:58:34.815Z,0.20
2022-09-28T23:01:36.701Z,0.40
2022-09-28T23:04:44.252Z,0.30
2022-09-28T23:11:42.448Z,0.60
2022-09-28T23:14:57.235Z,0.53
2022-09-28T23:25:52.514Z,0.60
2022-09-28T23:35:54.855Z,0.23
2022-09-28T23:38:56.839Z,0.47
2022-09-28T23:41:59.525Z,0.30
2022-09-28T23:45:02.605Z,0.40
2022-09-28T23:48:04.959Z,0.30
2022-09-28T23:51:06.810Z,0.37
2022-09-28T23:54:09.184Z,0.20
2022-09-28T23:57:11.042Z,0.30
